createdAt,value
2022-09-15T00:00:26.668Z,99.90
2022-09-15T00:03:35.350Z,99.90
2022-09-15T00:06:43.828Z,99.90
2022-09-15T00:09:53.641Z,99.90
2022-09-15T00:13:02.118Z,99.90
2022-09-15T00:16:15.228Z,99.90
2022-09-15T00:19:23.981Z,99.90
2022-09-15T00:22:32.697Z,99.90
2022-09-15T00:25:45.854Z,99.90
2022-09-15T00:28:54.328Z,99.90
2022-09-15T00:32:03.082Z,99.90
2022-09-15T00:35:11.481Z,99.90
2022-09-15T00:38:20.893Z,99.90
2022-09-15T00:41:31.526Z,99.90
2022-09-15T00:45:01.843Z,99.90
2022-09-15T00:48:14.652Z,99.90
2022-09-15T00:51:30.445Z,99.90
2022-09-15T00:54:43.628Z,99.90
2022-09-15T00:57:57.520Z,99.90
2022-09-15T01:01:08.262Z,99.90
2022-09-15T01:04:17.753Z,99.90
2022-09-15T01:07:34.021Z,99.90
2022-09-15T01:10:44.603Z,99.90
2022-09-15T01:13:54.494Z,99.90
2022-09-15T01:17:08.026Z,99.90
2022-09-15T01:20:59.384Z,99.90
2022-09-15T01:24:46.099Z,99.90
2022-09-15T01:28:43.680Z,99.90
2022-09-15T01:32:15.562Z,99.90
2022-09-15T01:35:33.713Z,99.90
2022-09-15T01:38:51.736Z,99.90
2022-09-15T01:42:03.355Z,99.90
2022-09-15T01:45:17.882Z,99.90
2022-09-15T01:48:29.539Z,99.90
2022-09-15T01:51:40.517Z,99.90
2022-09-15T01:54:53.374Z,99.90
2022-09-15T01:58:01.779Z,99.90
2022-09-15T02:01:15.907Z,99.90
2022-09-15T02:04:32.385Z,99.90
2022-09-15T02:07:47.570Z,99.90
2022-09-15T02:11:04.872Z,99.90
2022-09-15T02:14:18.279Z,99.90
2022-09-15T02:17:32.731Z,99.90
2022-09-15T02:20:49.308Z,99.90
2022-09-15T02:24:03.516Z,99.90
2022-09-15T02:27:15.695Z,99.90
2022-09-15T02:30:25.331Z,99.90
2022-09-15T02:33:37.127Z,99.90
2022-09-15T02:36:47.787Z,99.90
2022-09-15T02:39:59.123Z,99.90
2022-09-15T02:43:13.869Z,99.90
2022-09-15T02:46:24.636Z,99.90
2022-09-15T02:49:33.078Z,99.90
2022-09-15T02:52:42.904Z,99.90
2022-09-15T02:55:51.389Z,99.90
2022-09-15T02:58:59.830Z,99.90
2022-09-15T03:02:09.663Z,99.90
2022-09-15T03:05:20.137Z,99.90
2022-09-15T03:08:29.972Z,99.90
2022-09-15T03:11:38.633Z,99.90
2022-09-15T03:14:47.087Z,99.90
2022-09-15T03:17:56.050Z,99.90
2022-09-15T03:21:05.587Z,99.90
2022-09-15T03:24:15.394Z,99.90
2022-09-15T03:27:23.853Z,99.90
2022-09-15T03:30:32.276Z,99.90
2022-09-15T03:33:40.665Z,99.90
2022-09-15T03:36:49.104Z,99.90
2022-09-15T03:39:58.916Z,99.90
2022-09-15T03:43:07.398Z,99.90
2022-09-15T03:46:15.886Z,99.90
2022-09-15T03:49:24.637Z,99.90
2022-09-15T03:52:33.192Z,99.90
2022-09-15T03:55:43.157Z,99.90
2022-09-15T03:58:51.992Z,99.90
2022-09-15T04:02:00.526Z,99.90
2022-09-15T04:05:09.919Z,99.90
2022-09-15T04:08:18.341Z,99.90
2022-09-15T04:11:28.330Z,99.90
2022-09-15T04:14:36.798Z,99.90
2022-09-15T04:17:45.212Z,99.90
2022-09-15T04:20:53.707Z,99.90
2022-09-15T04:24:04.696Z,99.90
2022-09-15T04:27:14.777Z,99.90
2022-09-15T04:30:23.207Z,99.90
2022-09-15T04:33:31.623Z,99.90
2022-09-15T04:36:40.177Z,99.90
2022-09-15T04:39:49.325Z,99.90
2022-09-15T04:43:01.541Z,99.90
2022-09-15T04:46:09.997Z,99.90
2022-09-15T04:49:18.716Z,99.90
2022-09-15T04:52:27.170Z,99.90
2022-09-15T04:55:36.111Z,99.90
2022-09-15T04:58:48.355Z,99.90
2022-09-15T05:01:57.241Z,99.90
2022-09-15T05:05:06.394Z,99.90
2022-09-15T05:08:14.787Z,99.90
2022-09-15T05:11:23.848Z,99.90
2022-09-15T05:14:33.712Z,99.90
2022-09-15T05:17:42.119Z,99.90
2022-09-15T05:20:50.527Z,99.90
2022-09-15T05:23:58.978Z,99.90
2022-09-15T05:27:07.390Z,99.90
2022-09-15T05:30:36.774Z,99.90
2022-09-15T05:33:46.687Z,99.90
2022-09-15T05:36:55.102Z,99.90
2022-09-15T05:40:08.272Z,99.90
2022-09-15T05:43:17.635Z,99.90
2022-09-15T05:46:29.195Z,99.90
2022-09-15T05:49:37.864Z,99.90
2022-09-15T05:52:46.330Z,99.90
2022-09-15T05:55:56.808Z,99.90
2022-09-15T05:59:05.246Z,99.90
2022-09-15T06:02:15.395Z,99.90
2022-09-15T06:05:23.896Z,99.90
2022-09-15T06:08:33.564Z,99.90
2022-09-15T06:11:41.987Z,99.90
2022-09-15T06:14:52.860Z,99.90
2022-09-15T06:18:02.792Z,99.90
2022-09-15T06:21:13.656Z,99.90
2022-09-15T06:24:22.082Z,99.90
2022-09-15T06:27:30.516Z,99.90
2022-09-15T06:30:40.657Z,99.90
2022-09-15T06:33:52.188Z,99.90
2022-09-15T06:37:00.964Z,99.90
2022-09-15T06:40:10.551Z,99.90
2022-09-15T06:43:19.002Z,99.90
2022-09-15T06:46:29.465Z,99.90
2022-09-15T06:49:39.344Z,99.90
2022-09-15T06:52:47.798Z,99.90
2022-09-15T06:55:56.174Z,99.90
2022-09-15T06:59:04.864Z,99.90
2022-09-15T07:02:13.374Z,99.90
2022-09-15T07:05:25.559Z,99.90
2022-09-15T07:08:34.323Z,99.90
2022-09-15T07:11:42.838Z,99.90
2022-09-15T07:14:51.248Z,99.90
2022-09-15T07:18:00.832Z,99.90
2022-09-15T07:21:13.554Z,99.90
2022-09-15T07:24:22.040Z,99.90
2022-09-15T07:27:31.746Z,99.90
2022-09-15T07:30:40.333Z,99.90
2022-09-15T07:33:49.040Z,99.90
2022-09-15T07:36:58.856Z,99.90
2022-09-15T07:40:08.446Z,99.90
2022-09-15T07:43:17.357Z,99.90
2022-09-15T07:46:27.620Z,99.90
2022-09-15T07:49:36.081Z,99.90
2022-09-15T07:52:45.889Z,99.90
2022-09-15T07:55:54.494Z,98.50
2022-09-15T07:59:02.954Z,98.40
2022-09-15T08:02:17.465Z,97.30
2022-09-15T08:05:28.260Z,97.00
2022-09-15T08:08:39.120Z,98.20
2022-09-15T08:11:47.496Z,97.20
2022-09-15T08:14:55.853Z,98.60
2022-09-15T08:18:05.217Z,99.90
2022-09-15T08:21:16.229Z,99.90
2022-09-15T08:24:27.863Z,99.90
2022-09-15T08:27:36.393Z,99.90
2022-09-15T08:30:45.139Z,99.90
2022-09-15T08:33:56.208Z,99.90
2022-09-15T08:37:04.773Z,99.90
2022-09-15T08:40:18.973Z,99.90
2022-09-15T08:43:32.520Z,99.90
2022-09-15T08:46:44.924Z,99.90
2022-09-15T08:50:00.183Z,99.90
2022-09-15T08:53:14.158Z,99.90
2022-09-15T08:56:23.976Z,99.90
2022-09-15T08:59:36.983Z,99.90
2022-09-15T09:03:05.339Z,99.90
2022-09-15T09:06:25.738Z,99.90
2022-09-15T09:09:43.871Z,99.90
2022-09-15T09:13:14.317Z,99.90
2022-09-15T09:16:38.683Z,99.90
2022-09-15T09:19:58.942Z,99.90
2022-09-15T09:23:14.067Z,99.90
2022-09-15T09:26:22.675Z,99.90
2022-09-15T09:29:35.853Z,99.90
2022-09-15T09:32:48.953Z,99.90
2022-09-15T09:36:01.282Z,99.90
2022-09-15T09:39:15.083Z,99.90
2022-09-15T09:42:30.032Z,99.90
2022-09-15T09:45:39.947Z,99.90
2022-09-15T09:48:54.301Z,99.90
2022-09-15T09:52:04.627Z,99.90
2022-09-15T09:55:23.133Z,99.90
2022-09-15T09:58:31.597Z,99.90
2022-09-15T10:01:41.447Z,99.90
2022-09-15T10:04:51.484Z,99.90
2022-09-15T10:08:04.287Z,99.90
2022-09-15T10:11:12.812Z,99.90
2022-09-15T10:14:26.173Z,99.90
2022-09-15T10:17:45.316Z,99.90
2022-09-15T10:20:53.750Z,99.90
2022-09-15T10:24:25.516Z,99.90
2022-09-15T10:27:35.495Z,99.90
2022-09-15T10:31:01.077Z,99.90
2022-09-15T10:34:30.543Z,99.90
2022-09-15T10:37:50.012Z,99.90
2022-09-15T10:41:11.205Z,99.90
2022-09-15T10:44:36.178Z,99.90
2022-09-15T10:47:56.693Z,99.90
2022-09-15T10:51:17.750Z,99.90
2022-09-15T10:54:44.934Z,99.90
2022-09-15T10:58:16.117Z,99.90
2022-09-15T11:01:38.032Z,99.90
2022-09-15T11:05:20.394Z,99.90
2022-09-15T11:08:51.121Z,99.90
2022-09-15T11:12:12.182Z,99.90
2022-09-15T11:15:43.833Z,99.90
2022-09-15T11:19:02.249Z,99.90
2022-09-15T11:22:15.629Z,99.90
2022-09-15T11:25:28.311Z,99.90
2022-09-15T11:28:42.967Z,99.90
2022-09-15T11:31:55.865Z,99.90
2022-09-15T11:35:19.945Z,99.90
2022-09-15T11:38:35.719Z,99.90
2022-09-15T11:41:51.061Z,99.90
2022-09-15T11:45:01.744Z,99.90
2022-09-15T11:48:16.639Z,99.90
2022-09-15T11:51:27.946Z,99.90
2022-09-15T11:54:41.420Z,99.90
2022-09-15T11:57:57.520Z,99.90
2022-09-15T12:01:16.723Z,99.90
2022-09-15T12:04:30.492Z,99.90
2022-09-15T12:07:47.519Z,99.90
2022-09-15T12:10:58.843Z,99.90
2022-09-15T12:14:15.079Z,99.90
2022-09-15T12:17:35.402Z,99.90
2022-09-15T12:20:49.932Z,99.90
2022-09-15T12:24:03.103Z,99.90
2022-09-15T12:27:16.503Z,99.90
2022-09-15T12:30:42.753Z,99.90
2022-09-15T12:33:55.853Z,99.90
2022-09-15T12:37:14.588Z,99.90
2022-09-15T12:40:37.573Z,99.90
2022-09-15T12:43:54.159Z,99.90
2022-09-15T12:47:05.529Z,99.90
2022-09-15T12:50:26.795Z,99.90
2022-09-15T12:53:39.096Z,99.90
2022-09-15T12:56:53.105Z,99.90
2022-09-15T13:00:30.073Z,99.90
2022-09-15T13:04:26.525Z,99.90
2022-09-15T13:07:37.327Z,99.90
2022-09-15T13:11:02.543Z,99.90
2022-09-15T13:14:27.850Z,99.90
2022-09-15T13:17:37.460Z,99.90
2022-09-15T13:20:53.373Z,99.90
2022-09-15T13:24:06.299Z,99.90
2022-09-15T13:27:17.641Z,99.90
2022-09-15T13:30:40.558Z,99.90
2022-09-15T13:38:32.147Z,99.90
2022-09-15T13:41:57.914Z,99.90
2022-09-15T13:45:42.609Z,99.90
2022-09-15T13:49:08.295Z,99.90
2022-09-15T13:52:38.414Z,99.90
2022-09-15T13:55:46.865Z,99.90
2022-09-15T13:59:08.187Z,99.90
2022-09-15T14:02:22.945Z,99.90
2022-09-15T14:05:33.532Z,99.90
2022-09-15T14:08:43.402Z,99.90
2022-09-15T14:11:55.302Z,99.90
2022-09-15T14:15:08.224Z,99.90
2022-09-15T14:18:21.385Z,99.90
2022-09-15T14:21:32.342Z,99.90
2022-09-15T14:24:42.257Z,99.90
2022-09-15T14:27:52.308Z,99.90
2022-09-15T14:31:03.531Z,99.90
2022-09-15T14:34:18.501Z,99.90
2022-09-15T14:37:29.033Z,99.90
2022-09-15T14:40:39.230Z,99.90
2022-09-15T14:43:47.722Z,99.90
2022-09-15T14:50:23.071Z,99.90
2022-09-15T14:53:36.575Z,99.90
2022-09-15T14:56:46.388Z,99.90
2022-09-15T14:59:59.563Z,99.90
2022-09-15T15:03:23.055Z,99.90
2022-09-15T15:06:36.708Z,99.90
2022-09-15T15:09:49.610Z,99.90
2022-09-15T15:13:01.569Z,99.90
2022-09-15T15:19:43.422Z,99.90
2022-09-15T15:23:16.742Z,99.90
2022-09-15T15:26:29.241Z,99.90
2022-09-15T15:29:47.436Z,99.90
2022-09-15T15:33:01.574Z,99.90
2022-09-15T15:40:18.435Z,99.90
2022-09-15T15:43:31.559Z,99.90
2022-09-15T15:50:32.555Z,99.90
2022-09-15T15:53:42.741Z,99.90
2022-09-15T15:56:51.772Z,99.90
2022-09-15T16:00:04.349Z,99.90
2022-09-15T16:03:14.337Z,99.90
2022-09-15T16:06:23.587Z,99.90
2022-09-15T16:09:34.486Z,99.90
2022-09-15T16:12:46.654Z,99.90
2022-09-15T16:19:56.543Z,99.90
2022-09-15T16:23:05.467Z,99.90
2022-09-15T16:26:18.786Z,99.90
2022-09-15T16:29:31.581Z,99.90
2022-09-15T16:32:41.336Z,99.90
2022-09-15T16:35:52.261Z,99.90
2022-09-15T16:39:00.636Z,99.90
2022-09-15T16:42:11.903Z,99.90
2022-09-15T16:45:25.862Z,99.90
2022-09-15T16:48:35.611Z,99.90
2022-09-15T16:51:44.123Z,99.90
2022-09-15T16:54:52.524Z,99.90
2022-09-15T16:58:02.870Z,99.90
2022-09-15T17:01:17.632Z,99.90
2022-09-15T17:04:26.135Z,99.90
2022-09-15T17:07:34.606Z,99.90
2022-09-15T17:10:43.189Z,99.90
2022-09-15T17:13:53.314Z,99.90
2022-09-15T17:17:01.829Z,99.90
2022-09-15T17:20:10.541Z,99.90
2022-09-15T17:23:23.400Z,99.90
2022-09-15T17:26:31.929Z,99.90
2022-09-15T17:29:41.922Z,99.90
2022-09-15T17:32:50.709Z,99.90
2022-09-15T17:36:00.168Z,99.90
2022-09-15T17:39:08.554Z,99.90
2022-09-15T17:42:16.983Z,99.90
2022-09-15T17:45:30.146Z,99.90
2022-09-15T17:48:39.052Z,99.90
2022-09-15T17:51:47.529Z,99.90
2022-09-15T17:54:55.968Z,99.90
2022-09-15T17:58:05.412Z,99.90
2022-09-15T18:01:16.352Z,99.90
2022-09-15T18:04:24.987Z,99.90
2022-09-15T18:07:33.404Z,99.90
2022-09-15T18:10:41.816Z,99.90
2022-09-15T18:13:50.185Z,99.90
2022-09-15T18:16:59.990Z,99.90
2022-09-15T18:20:09.597Z,99.90
2022-09-15T18:23:20.025Z,99.90
2022-09-15T18:26:28.399Z,99.90
2022-09-15T18:29:36.851Z,99.90
2022-09-15T18:32:46.823Z,99.90
2022-09-15T18:35:56.930Z,99.90
2022-09-15T18:39:06.198Z,99.90
2022-09-15T18:42:14.601Z,99.90
2022-09-15T18:45:23.027Z,99.90
2022-09-15T18:48:32.853Z,99.90
2022-09-15T18:51:51.528Z,99.90
2022-09-15T18:55:00.712Z,99.90
2022-09-15T18:58:09.259Z,99.90
2022-09-15T19:01:18.320Z,99.90
2022-09-15T19:04:31.879Z,99.90
2022-09-15T19:07:41.962Z,99.90
2022-09-15T19:10:58.283Z,99.90
2022-09-15T19:14:07.828Z,99.90
2022-09-15T19:17:16.681Z,99.90
2022-09-15T19:20:29.762Z,99.90
2022-09-15T19:23:39.303Z,99.90
2022-09-15T19:26:48.037Z,99.90
2022-09-15T19:29:56.636Z,99.90
2022-09-15T19:33:05.610Z,99.90
2022-09-15T19:36:28.062Z,99.90
2022-09-15T19:39:37.595Z,99.90
2022-09-15T19:42:47.291Z,99.90
2022-09-15T19:45:55.916Z,99.90
2022-09-15T19:49:04.855Z,99.90
2022-09-15T19:52:14.802Z,99.90
2022-09-15T19:55:23.481Z,99.90
2022-09-15T19:58:32.629Z,99.90
2022-09-15T20:01:41.445Z,99.90
2022-09-15T20:04:50.491Z,99.90
2022-09-15T20:08:00.734Z,99.90
2022-09-15T20:11:10.509Z,99.90
2022-09-15T20:14:19.842Z,99.90
2022-09-15T20:17:28.438Z,99.90
2022-09-15T20:20:40.713Z,99.90
2022-09-15T20:23:50.510Z,99.90
2022-09-15T20:26:59.295Z,99.90
2022-09-15T20:30:08.928Z,99.90
2022-09-15T20:33:17.255Z,99.90
2022-09-15T20:36:28.641Z,99.90
2022-09-15T20:39:38.418Z,99.90
2022-09-15T20:42:47.828Z,99.90
2022-09-15T20:46:00.709Z,99.90
2022-09-15T20:49:10.141Z,99.90
2022-09-15T20:52:18.730Z,99.90
2022-09-15T20:55:28.838Z,99.90
2022-09-15T20:58:38.502Z,99.90
2022-09-15T21:01:47.032Z,99.90
2022-09-15T21:04:55.426Z,99.90
2022-09-15T21:08:04.082Z,99.90
2022-09-15T21:11:14.805Z,99.90
2022-09-15T21:14:23.294Z,99.90
2022-09-15T21:17:31.765Z,99.90
2022-09-15T21:20:40.182Z,99.90
2022-09-15T21:23:50.247Z,99.90
2022-09-15T21:27:17.099Z,99.90
2022-09-15T21:30:25.571Z,99.90
2022-09-15T21:33:34.427Z,99.90
2022-09-15T21:36:42.885Z,99.90
2022-09-15T21:39:51.324Z,99.90
2022-09-15T21:43:01.423Z,99.90
2022-09-15T21:46:13.535Z,99.90
2022-09-15T21:49:22.185Z,99.90
2022-09-15T21:52:31.560Z,99.90
2022-09-15T21:55:39.950Z,99.90
2022-09-15T21:58:50.061Z,99.90
2022-09-15T22:01:58.762Z,99.90
2022-09-15T22:05:07.979Z,99.90
2022-09-15T22:08:17.399Z,99.90
2022-09-15T22:11:25.911Z,99.90
2022-09-15T22:14:35.880Z,99.90
2022-09-15T22:17:44.391Z,99.90
2022-09-15T22:20:54.286Z,99.90
2022-09-15T22:24:04.960Z,99.90
2022-09-15T22:27:13.404Z,99.90
2022-09-15T22:30:23.251Z,99.90
2022-09-15T22:33:31.868Z,99.90
2022-09-15T22:36:40.357Z,99.90
2022-09-15T22:39:58.945Z,99.90
2022-09-15T22:43:08.186Z,99.90
2022-09-15T22:46:19.107Z,99.90
2022-09-15T22:49:28.365Z,99.90
2022-09-15T22:52:37.011Z,99.90
2022-09-15T22:55:45.625Z,99.90
2022-09-15T22:58:54.385Z,99.90
2022-09-15T23:02:04.221Z,99.90
2022-09-15T23:05:12.607Z,99.90
2022-09-15T23:08:21.026Z,99.90
2022-09-15T23:11:32.381Z,99.90
2022-09-15T23:14:40.760Z,99.90
2022-09-15T23:17:50.765Z,99.90
2022-09-15T23:21:00.865Z,99.90
2022-09-15T23:24:12.388Z,99.90
2022-09-15T23:27:20.979Z,99.90
2022-09-15T23:30:29.414Z,99.90
2022-09-15T23:33:39.856Z,99.90
2022-09-15T23:36:48.344Z,99.90
2022-09-15T23:39:57.316Z,99.90
2022-09-15T23:43:05.763Z,99.90
2022-09-15T23:46:14.870Z,99.90
2022-09-15T23:49:24.711Z,99.90
2022-09-15T23:52:33.163Z,99.90
2022-09-15T23:55:41.535Z,99.90
2022-09-15T23:58:50.103Z,99.90
